Time;durP1;ratioP1;P1;durP2;ratioP2;P2;SDS_P1;SDS_P2;PMS_P1;PMS_P2;Temp;Humidity;BMP_temperature;BMP_pressure;BME280_temperature;BME280_humidity;BME280_pressure;Samples;Min_cycle;Max_cycle;Signal;HPM_P1;HPM_P2
2021/04/27 00:00:00;;;;;;;9.30;6.03;;;17.00;75.70;16.90;98440.00;;;;337354;28;97010;-93
2021/04/27 00:00:14;;;;;;;9.55;6.10;;;17.00;75.60;16.80;98448.00;;;;341922;28;84742;-95
2021/04/27 00:00:26;;;;;;;11.02;6.72;;;16.90;75.70;16.80;98442.00;;;;335867;28;97948;-95
2021/04/27 00:00:38;;;;;;;9.32;6.65;;;16.90;75.80;16.80;98439.00;;;;339399;28;83503;-95
2021/04/27 00:00:49;;;;;;;9.52;7.00;;;16.90;75.80;16.70;98437.00;;;;334675;29;95662;-96
2021/04/27 00:01:00;;;;;;;7.75;6.25;;;16.90;75.80;16.70;98433.00;;;;339631;28;82602;-94
2021/04/27 00:01:14;;;;;;;8.35;6.32;;;16.90;75.80;16.70;98435.00;;;;336553;28;93596;-96
2021/04/27 00:01:25;;;;;;;8.48;6.55;;;16.80;75.80;16.70;98438.00;;;;338433;28;83732;-95
2021/04/27 00:01:37;;;;;;;7.82;6.68;;;16.80;75.80;16.80;98449.00;;;;334719;29;95532;-94
2021/04/27 00:01:48;;;;;;;7.75;6.75;;;16.80;75.70;16.80;98444.00;;;;341004;28;84561;-94
2021/04/27 00:02:00;;;;;;;7.28;6.57;;;16.80;75.60;16.90;98444.00;;;;337590;28;95754;-96
2021/04/27 00:02:16;;;;;;;8.50;6.55;;;16.80;75.60;16.90;98443.00;;;;340020;28;83626;-95
2021/04/27 00:02:27;;;;;;;9.70;6.22;;;16.80;75.80;16.90;98440.00;;;;338883;28;94671;-94
2021/04/27 00:02:39;;;;;;;8.50;6.10;;;16.90;76.60;16.90;98436.00;;;;338272;28;83883;-95
2021/04/27 00:02:50;;;;;;;7.57;6.22;;;16.90;75.90;16.90;98440.00;;;;337713;28;95773;-94
2021/04/27 00:03:04;;;;;;;8.88;6.85;;;16.80;75.80;17.00;98434.00;;;;341082;28;82446;-92
2021/04/27 00:03:16;;;;;;;9.82;7.00;;;16.90;75.70;17.00;98436.00;;;;337671;28;96060;-95
2021/04/27 00:03:27;;;;;;;9.60;6.90;;;16.90;75.80;17.00;98440.00;;;;338314;28;82651;-94
2021/04/27 00:03:39;;;;;;;8.80;6.90;;;16.90;75.70;16.90;98436.00;;;;337541;28;96646;-95
2021/04/27 00:03:50;;;;;;;7.43;6.40;;;16.90;75.80;16.90;98436.00;;;;337009;28;85189;-94
2021/04/27 00:04:02;;;;;;;7.38;6.45;;;16.90;75.70;16.90;98435.00;;;;337776;28;93483;-95
2021/04/27 00:04:13;;;;;;;7.80;6.43;;;16.80;75.60;16.90;98438.00;;;;338471;28;83135;-94
2021/04/27 00:04:25;;;;;;;7.25;6.28;;;16.80;75.60;16.90;98440.00;;;;337561;28;96132;-92
2021/04/27 00:04:36;;;;;;;7.85;6.70;;;16.90;75.60;16.90;98445.00;;;;338091;28;84989;-95
2021/04/27 00:04:48;;;;;;;8.30;6.95;;;16.80;75.60;16.90;98435.00;;;;335222;29;93051;-94
2021/04/27 00:04:59;;;;;;;8.73;7.05;;;16.90;75.60;16.90;98435.00;;;;338397;28;82381;-95
2021/04/27 00:05:14;;;;;;;8.43;6.55;;;16.80;75.60;17.00;98437.00;;;;338713;28;93142;-94
2021/04/27 00:05:25;;;;;;;7.65;6.10;;;16.90;75.70;16.90;98439.00;;;;338393;28;83577;-94
2021/04/27 00:05:37;;;;;;;8.20;6.22;;;16.90;75.70;16.90;98434.00;;;;337582;28;95982;-94
2021/04/27 00:05:48;;;;;;;8.50;6.20;;;16.90;75.60;16.90;98436.00;;;;338411;28;83421;-94
2021/04/27 00:05:59;;;;;;;8.38;6.30;;;16.90;75.60;16.80;98438.00;;;;337857;28;94783;-95
2021/04/27 00:06:11;;;;;;;7.50;6.70;;;16.90;75.70;16.80;98436.00;;;;337283;28;83595;-94
2021/04/27 00:06:22;;;;;;;7.88;6.70;;;16.80;75.60;16.90;98437.00;;;;340130;28;96815;-94
2021/04/27 00:06:34;;;;;;;7.07;6.30;;;16.80;75.60;16.90;98431.00;;;;339717;28;82353;-95
2021/04/27 00:06:45;;;;;;;8.57;6.07;;;16.80;75.60;16.90;98437.00;;;;340397;28;96364;-95
2021/04/27 00:06:57;;;;;;;9.13;6.45;;;16.90;75.70;16.90;98431.00;;;;338255;28;84566;-94
2021/04/27 00:07:08;;;;;;;9.05;6.38;;;16.80;75.60;16.90;98434.00;;;;340237;28;95978;-94
2021/04/27 00:07:20;;;;;;;8.32;6.30;;;16.80;75.60;16.90;98429.00;;;;339519;28;83497;-93
2021/04/27 00:07:31;;;;;;;7.72;6.32;;;16.80;75.60;16.90;98437.00;;;;337227;28;96031;-93
2021/04/27 00:07:43;;;;;;;7.10;6.07;;;16.90;75.70;17.00;98434.00;;;;338120;28;83540;-95
2021/04/27 00:07:54;;;;;;;8.10;6.03;;;16.90;75.70;17.00;98435.00;;;;341133;28;94737;-94
2021/04/27 00:08:06;;;;;;;8.90;6.50;;;16.90;75.70;17.00;98429.00;;;;337468;28;84922;-94
2021/04/27 00:08:18;;;;;;;8.73;7.10;;;16.90;75.70;17.00;98424.00;;;;338609;28;96990;-93
2021/04/27 00:08:29;;;;;;;8.82;7.22;;;16.90;75.70;16.90;98433.00;;;;337828;28;84169;-95
2021/04/27 00:08:41;;;;;;;9.75;7.22;;;16.90;75.70;16.90;98427.00;;;;335946;28;92975;-95
2021/04/27 00:08:53;;;;;;;8.80;6.72;;;16.90;75.70;17.00;98424.00;;;;337669;28;83921;-96
2021/04/27 00:09:09;;;;;;;8.80;6.38;;;16.90;75.70;16.90;98441.00;;;;337097;28;94861;-95
2021/04/27 00:09:20;;;;;;;9.13;6.78;;;16.90;75.70;16.90;98430.00;;;;338973;28;84218;-94
2021/04/27 00:09:32;;;;;;;8.50;6.88;;;16.90;75.70;16.80;98427.00;;;;338446;28;94574;-94
2021/04/27 00:09:44;;;;;;;8.00;6.32;;;16.80;75.70;16.80;98435.00;;;;336347;28;83624;-95
2021/04/27 00:09:56;;;;;;;8.25;6.50;;;16.80;75.60;16.90;98435.00;;;;338372;28;97233;-95
2021/04/27 00:10:09;;;;;;;8.27;6.53;;;16.80;75.60;16.90;98435.00;;;;340497;28;84904;-95
2021/04/27 00:10:20;;;;;;;7.97;6.20;;;16.90;75.70;17.00;98430.00;;;;338154;28;94447;-95
2021/04/27 00:10:32;;;;;;;7.28;6.10;;;16.90;75.70;17.00;98427.00;;;;339222;28;83540;-94
2021/04/27 00:10:44;;;;;;;7.97;6.57;;;16.90;75.80;17.10;98430.00;;;;339369;28;94718;-95
2021/04/27 00:10:55;;;;;;;8.55;6.70;;;16.90;75.80;17.10;98430.00;;;;340412;28;83955;-94
2021/04/27 00:11:08;;;;;;;7.85;6.38;;;16.90;75.70;17.00;98429.00;;;;339195;28;93335;-94
2021/04/27 00:11:19;;;;;;;7.35;6.32;;;16.90;75.70;17.10;98429.00;;;;336414;28;83899;-95
2021/04/27 00:11:31;;;;;;;7.90;6.03;;;16.90;75.80;17.10;98427.00;;;;338558;28;93212;-94
2021/04/27 00:11:42;;;;;;;7.88;5.97;;;16.90;75.90;17.00;98433.00;;;;338869;28;83510;-94
2021/04/27 00:11:54;;;;;;;6.95;6.07;;;16.90;75.90;17.00;98431.00;;;;337095;28;96084;-94
2021/04/27 00:12:06;;;;;;;7.07;6.35;;;16.90;75.80;17.00;98434.00;;;;339378;28;83494;-95
2021/04/27 00:12:17;;;;;;;9.40;6.38;;;16.90;75.70;17.00;98428.00;;;;337202;28;94037;-94
2021/04/27 00:12:29;;;;;;;10.15;6.65;;;16.90;75.70;17.00;98433.00;;;;337696;28;84941;-95
2021/04/27 00:12:40;;;;;;;11.05;6.65;;;16.90;75.70;16.90;98422.00;;;;337115;28;96005;-93
2021/04/27 00:12:52;;;;;;;9.27;6.60;;;16.90;75.90;16.90;98431.00;;;;337758;28;84343;-94
2021/04/27 00:13:03;;;;;;;8.85;6.55;;;16.90;75.90;16.90;98427.00;;;;338341;28;93426;-92
2021/04/27 00:13:15;;;;;;;9.38;6.70;;;16.90;75.90;16.90;98433.00;;;;336559;28;83636;-94
2021/04/27 00:13:27;;;;;;;9.05;6.70;;;16.90;75.90;16.90;98427.00;;;;337305;28;97652;-94
2021/04/27 00:13:39;;;;;;;9.20;6.70;;;16.90;76.00;17.00;98425.00;;;;336536;28;82389;-95
2021/04/27 00:13:50;;;;;;;8.48;6.28;;;16.90;76.10;17.00;98428.00;;;;337192;28;96063;-94
2021/04/27 00:14:03;;;;;;;8.40;5.93;;;16.90;76.00;17.00;98422.00;;;;337856;28;84417;-95
2021/04/27 00:14:14;;;;;;;8.98;6.22;;;16.90;75.90;17.00;98430.00;;;;337980;28;96838;-94
2021/04/27 00:14:26;;;;;;;8.60;6.40;;;16.90;75.80;16.90;98428.00;;;;337603;28;83822;-95
2021/04/27 00:14:37;;;;;;;8.45;6.18;;;16.90;75.90;16.90;98425.00;;;;339094;28;94898;-96
2021/04/27 00:14:49;;;;;;;7.70;5.93;;;16.90;75.90;16.90;98417.00;;;;340445;28;83562;-95
2021/04/27 00:15:00;;;;;;;7.95;6.10;;;16.90;75.80;16.90;98426.00;;;;339640;28;95606;-94
2021/04/27 00:15:18;;;;;;;7.47;5.78;;;16.90;76.10;16.80;98423.00;;;;339114;28;84762;-94
2021/04/27 00:15:29;;;;;;;9.00;5.85;;;16.90;75.90;16.80;98425.00;;;;338343;28;96210;-95
2021/04/27 00:15:41;;;;;;;10.57;5.88;;;16.90;76.00;16.80;98419.00;;;;339033;28;83490;-93
2021/04/27 00:15:53;;;;;;;9.50;5.97;;;16.80;76.10;16.80;98428.00;;;;339658;28;97290;-96
2021/04/27 00:16:04;;;;;;;7.50;6.38;;;16.90;76.00;16.70;98429.00;;;;338837;28;84049;-93
2021/04/27 00:16:16;;;;;;;6.80;6.10;;;16.80;76.00;16.70;98426.00;;;;338260;28;96964;-94
2021/04/27 00:16:27;;;;;;;6.93;6.15;;;16.80;76.00;16.80;98425.00;;;;337663;28;82915;-95
2021/04/27 00:16:39;;;;;;;7.75;6.28;;;16.80;75.90;16.80;98416.00;;;;338289;28;94938;-95
2021/04/27 00:16:50;;;;;;;8.20;6.65;;;16.80;75.90;16.90;98420.00;;;;339177;28;83123;-93
2021/04/27 00:17:03;;;;;;;8.35;6.47;;;16.80;75.90;16.80;98427.00;;;;336981;28;94600;-94
2021/04/27 00:17:14;;;;;;;9.40;6.55;;;16.80;76.00;16.80;98419.00;;;;339594;28;84588;-95
2021/04/27 00:17:26;;;;;;;12.63;7.03;;;16.80;76.20;16.70;98430.00;;;;335814;28;95718;-95
2021/04/27 00:17:38;;;;;;;12.57;7.47;;;16.80;76.20;16.60;98424.00;;;;337065;28;83613;-95
2021/04/27 00:17:49;;;;;;;10.25;7.07;;;16.80;76.30;16.70;98427.00;;;;337052;28;94619;-94
2021/04/27 00:18:01;;;;;;;8.77;6.38;;;16.80;76.30;16.60;98426.00;;;;339064;28;84276;-95
2021/04/27 00:18:13;;;;;;;7.53;5.88;;;16.80;76.30;16.60;98421.00;;;;336875;28;95754;-94
2021/04/27 00:18:24;;;;;;;8.23;6.07;;;16.80;76.20;16.60;98419.00;;;;339194;28;82400;-94
2021/04/27 00:18:36;;;;;;;8.38;6.38;;;16.80;76.20;16.60;98423.00;;;;338509;28;96287;-95
2021/04/27 00:18:47;;;;;;;9.68;6.38;;;16.70;76.20;16.70;98425.00;;;;340437;28;83292;-94
2021/04/27 00:18:59;;;;;;;9.05;6.40;;;16.80;76.30;16.70;98416.00;;;;339604;28;95939;-93
2021/04/27 00:19:10;;;;;;;8.93;6.72;;;16.70;76.30;16.80;98431.00;;;;337939;28;82427;-94
2021/04/27 00:19:22;;;;;;;9.18;6.68;;;16.70;76.40;16.80;98428.00;;;;339794;28;97324;-94
2021/04/27 00:19:33;;;;;;;11.50;6.53;;;16.80;77.00;16.80;98423.00;;;;338863;28;84074;-95
2021/04/27 00:19:45;;;;;;;11.20;6.63;;;16.70;76.30;16.80;98417.00;;;;337039;28;95601;-95
2021/04/27 00:19:56;;;;;;;8.70;6.80;;;16.80;76.30;16.80;98423.00;;;;337741;28;84231;-96
2021/04/27 00:20:08;;;;;;;8.80;6.22;;;16.80;76.30;16.90;98427.00;;;;337097;28;97074;-94
2021/04/27 00:20:21;;;;;;;9.00;6.45;;;16.80;76.30;16.90;98426.00;;;;339016;28;84269;-94
2021/04/27 00:20:33;;;;;;;8.68;6.50;;;16.80;76.30;16.80;98415.00;;;;337307;28;97015;-95
2021/04/27 00:20:45;;;;;;;7.70;6.00;;;16.80;76.30;16.80;98426.00;;;;340301;28;83691;-94
2021/04/27 00:20:57;;;;;;;7.28;6.00;;;16.80;76.20;16.90;98417.00;;;;338375;28;96760;-95
2021/04/27 00:21:08;;;;;;;6.93;6.20;;;16.80;76.20;17.00;98419.00;;;;339685;28;83935;-95
2021/04/27 00:21:20;;;;;;;7.53;6.63;;;16.80;76.80;16.90;98416.00;;;;338497;28;95993;-96
2021/04/27 00:21:31;;;;;;;8.52;7.07;;;16.80;76.20;17.00;98418.00;;;;339198;28;83470;-93
2021/04/27 00:21:43;;;;;;;8.50;7.00;;;16.80;76.20;16.90;98417.00;;;;339753;28;94132;-95
2021/04/27 00:21:54;;;;;;;8.30;6.65;;;16.80;76.20;17.00;98415.00;;;;337570;28;83994;-93
2021/04/27 00:22:06;;;;;;;7.03;6.32;;;16.80;76.20;17.00;98420.00;;;;339639;28;97931;-95
2021/04/27 00:22:17;;;;;;;7.20;6.47;;;16.80;76.20;16.90;98418.00;;;;339058;28;84867;-94
2021/04/27 00:22:29;;;;;;;8.20;6.63;;;16.80;76.20;16.90;98425.00;;;;339880;28;95748;-96
2021/04/27 00:22:41;;;;;;;9.80;6.45;;;16.90;76.30;16.80;98417.00;;;;340453;28;83152;-93
2021/04/27 00:22:55;;;;;;;8.10;5.95;;;16.80;76.10;16.90;98426.00;;;;337127;28;96826;-93
2021/04/27 00:23:07;;;;;;;7.13;5.65;;;16.80;76.00;16.90;98424.00;;;;338694;28;82687;-95
2021/04/27 00:23:18;;;;;;;7.40;6.20;;;16.80;75.90;17.00;98422.00;;;;335892;28;96213;-96
2021/04/27 00:23:30;;;;;;;7.18;5.93;;;16.80;76.00;17.00;98424.00;;;;335175;29;85095;-95
2021/04/27 00:23:41;;;;;;;6.95;6.13;;;16.90;76.10;17.00;98418.00;;;;336978;28;97565;-90
2021/04/27 00:23:53;;;;;;;7.80;6.18;;;16.90;76.10;17.00;98425.00;;;;336445;28;83948;-94
2021/04/27 00:24:05;;;;;;;8.25;6.28;;;16.90;76.10;17.10;98419.00;;;;335714;28;98035;-93
2021/04/27 00:24:17;;;;;;;8.55;6.15;;;16.80;76.00;17.00;98421.00;;;;338055;28;83385;-93
2021/04/27 00:24:31;;;;;;;7.43;5.85;;;16.90;76.00;17.00;98420.00;;;;338441;28;96372;-94
2021/04/27 00:24:43;;;;;;;7.30;5.93;;;16.90;76.10;17.00;98424.00;;;;340648;28;83975;-94
2021/04/27 00:24:54;;;;;;;7.72;6.07;;;16.90;76.00;16.90;98423.00;;;;339746;28;95736;-93
2021/04/27 00:25:07;;;;;;;7.85;6.65;;;16.90;76.00;17.10;98416.00;;;;340504;28;84748;-95
2021/04/27 00:25:18;;;;;;;7.47;6.55;;;16.90;76.00;17.00;98416.00;;;;338506;28;97100;-94
2021/04/27 00:25:30;;;;;;;7.60;6.30;;;16.90;76.00;17.00;98423.00;;;;337921;28;82395;-92
2021/04/27 00:25:42;;;;;;;7.63;5.72;;;16.90;76.00;17.00;98418.00;;;;335420;28;95794;-94
2021/04/27 00:25:55;;;;;;;7.82;6.10;;;16.90;75.90;17.00;98414.00;;;;337723;28;83150;-95
2021/04/27 00:26:07;;;;;;;8.10;6.78;;;16.90;76.00;16.90;98420.00;;;;336319;28;95531;-94
2021/04/27 00:26:18;;;;;;;8.50;6.95;;;16.90;76.00;17.00;98422.00;;;;338124;28;83714;-96
2021/04/27 00:26:30;;;;;;;9.93;7.00;;;16.90;76.20;17.00;98427.00;;;;337149;28;96020;-95
2021/04/27 00:26:41;;;;;;;10.02;6.93;;;16.90;76.10;17.00;98421.00;;;;339212;28;84837;-94
2021/04/27 00:26:52;;;;;;;9.80;6.65;;;16.90;76.00;17.00;98419.00;;;;337114;28;96094;-94
2021/04/27 00:27:04;;;;;;;9.52;6.72;;;16.90;76.00;16.90;98420.00;;;;339125;28;82524;-94
2021/04/27 00:27:16;;;;;;;9.23;6.90;;;16.90;76.00;17.00;98419.00;;;;337266;28;92949;-94
2021/04/27 00:27:27;;;;;;;8.15;6.72;;;16.90;76.00;16.90;98416.00;;;;337828;28;83607;-95
2021/04/27 00:27:39;;;;;;;7.82;6.30;;;16.90;75.90;16.90;98417.00;;;;339702;28;95679;-96
2021/04/27 00:27:52;;;;;;;8.90;6.72;;;16.90;76.00;16.80;98419.00;;;;337782;28;84640;-95
2021/04/27 00:28:04;;;;;;;9.98;7.28;;;16.90;76.00;16.80;98418.00;;;;338196;28;96961;-94
2021/04/27 00:28:15;;;;;;;10.60;6.93;;;16.90;76.20;16.70;98413.00;;;;336445;28;84037;-96
2021/04/27 00:28:27;;;;;;;8.98;6.40;;;16.90;76.20;16.70;98421.00;;;;334419;28;96641;-95
2021/04/27 00:28:38;;;;;;;7.50;6.10;;;16.80;76.20;16.60;98415.00;;;;336422;28;84984;-94
2021/04/27 00:28:50;;;;;;;6.88;6.15;;;16.80;76.70;16.70;98418.00;;;;337083;28;94699;-95
2021/04/27 00:29:06;;;;;;;7.60;5.97;;;16.80;76.40;16.70;98416.00;;;;336501;28;84083;-93
2021/04/27 00:29:17;;;;;;;8.05;6.20;;;16.80;76.30;16.70;98428.00;;;;336937;28;95985;-95
2021/04/27 00:29:29;;;;;;;10.35;6.75;;;16.80;76.30;16.70;98422.00;;;;337788;28;85072;-95
2021/04/27 00:29:40;;;;;;;11.25;6.47;;;16.80;76.30;16.70;98412.00;;;;338120;28;95842;-95
2021/04/27 00:29:51;;;;;;;10.18;5.95;;;16.80;76.30;16.70;98415.00;;;;337744;28;83378;-95
2021/04/27 00:30:07;;;;;;;8.20;5.95;;;16.80;76.20;16.70;98414.00;;;;335581;28;97672;-94
2021/04/27 00:30:19;;;;;;;8.07;6.28;;;16.80;76.40;16.70;98413.00;;;;336397;28;84006;-96
2021/04/27 00:30:31;;;;;;;8.02;6.63;;;16.70;76.60;16.70;98415.00;;;;337025;28;96811;-94
2021/04/27 00:30:42;;;;;;;7.30;6.50;;;16.70;76.40;16.60;98409.00;;;;335191;29;83477;-95
2021/04/27 00:30:54;;;;;;;7.35;6.65;;;16.70;76.40;16.60;98416.00;;;;337102;28;95825;-95
2021/04/27 00:31:05;;;;;;;7.35;6.63;;;16.70;76.40;16.70;98411.00;;;;339062;28;84479;-94
2021/04/27 00:31:17;;;;;;;7.70;6.90;;;16.70;76.40;16.60;98420.00;;;;338269;28;95065;-95
2021/04/27 00:31:28;;;;;;;7.80;7.00;;;16.70;76.60;16.60;98408.00;;;;336609;28;82390;-96
2021/04/27 00:31:40;;;;;;;8.00;6.78;;;16.70;76.60;16.60;98416.00;;;;337067;28;95983;-95
2021/04/27 00:31:52;;;;;;;8.32;6.53;;;16.70;76.60;16.60;98418.00;;;;339215;28;83460;-95
2021/04/27 00:32:04;;;;;;;7.85;6.30;;;16.70;76.60;16.70;98416.00;;;;337212;28;96768;-95
2021/04/27 00:32:15;;;;;;;7.68;6.50;;;16.70;76.50;16.60;98419.00;;;;335963;28;83800;-94
2021/04/27 00:32:27;;;;;;;7.70;6.55;;;16.70;76.40;16.70;98414.00;;;;337303;28;93369;-95
2021/04/27 00:32:38;;;;;;;7.50;6.13;;;16.70;76.50;16.70;98423.00;;;;337729;28;84667;-95
2021/04/27 00:32:50;;;;;;;8.55;6.03;;;16.70;76.40;16.70;98410.00;;;;334640;29;95732;-95
2021/04/27 00:33:02;;;;;;;8.45;6.22;;;16.70;76.40;16.80;98408.00;;;;335199;29;85178;-95
2021/04/27 00:33:13;;;;;;;8.57;6.35;;;16.70;76.40;16.80;98414.00;;;;336879;28;95833;-95
2021/04/27 00:33:25;;;;;;;11.75;7.07;;;16.70;76.40;16.70;98407.00;;;;337888;28;84417;-96
2021/04/27 00:33:36;;;;;;;10.70;6.95;;;16.70;76.30;16.70;98409.00;;;;337299;28;93340;-95
2021/04/27 00:33:48;;;;;;;9.35;6.40;;;16.70;76.40;16.70;98420.00;;;;337729;28;85067;-96
2021/04/27 00:33:59;;;;;;;7.80;6.15;;;16.70;76.50;16.80;98420.00;;;;337202;28;95847;-96
2021/04/27 00:34:10;;;;;;;8.07;6.25;;;16.70;76.60;16.80;98418.00;;;;337909;28;83135;-94
2021/04/27 00:34:22;;;;;;;10.90;6.28;;;16.70;76.60;16.80;98420.00;;;;336003;28;93088;-95
2021/04/27 00:34:34;;;;;;;10.85;6.40;;;16.70;76.40;16.80;98414.00;;;;337920;28;83752;-95
2021/04/27 00:34:45;;;;;;;7.95;6.07;;;16.70;76.40;16.90;98415.00;;;;338525;28;95929;-95
2021/04/27 00:34:57;;;;;;;8.05;6.47;;;16.70;76.40;17.00;98412.00;;;;337875;28;84171;-96
2021/04/27 00:35:10;;;;;;;8.45;6.57;;;16.70;76.40;17.00;98417.00;;;;340456;28;93625;-95
2021/04/27 00:35:22;;;;;;;8.88;6.88;;;16.80;76.30;16.90;98406.00;;;;338436;28;83457;-94
2021/04/27 00:35:34;;;;;;;8.13;6.53;;;16.80;76.10;16.90;98415.00;;;;339427;28;97100;-94
2021/04/27 00:35:46;;;;;;;7.55;6.50;;;16.70;76.00;16.80;98418.00;;;;340299;28;83790;-95
2021/04/27 00:35:57;;;;;;;7.75;6.47;;;16.80;76.10;16.80;98407.00;;;;339734;28;96273;-95
2021/04/27 00:36:09;;;;;;;7.45;6.38;;;16.70;76.00;16.90;98410.00;;;;340343;28;83658;-96
2021/04/27 00:36:20;;;;;;;7.40;6.43;;;16.80;76.00;17.00;98408.00;;;;339773;28;94132;-94
2021/04/27 00:36:31;;;;;;;7.18;6.43;;;16.80;76.10;17.00;98412.00;;;;339217;28;82419;-95
2021/04/27 00:36:43;;;;;;;7.97;6.35;;;16.80;76.10;16.90;98413.00;;;;339646;28;95072;-95
2021/04/27 00:36:55;;;;;;;8.82;6.68;;;16.80;76.20;16.90;98408.00;;;;336367;28;83642;-95
2021/04/27 00:37:06;;;;;;;9.88;6.97;;;16.80;76.20;16.90;98414.00;;;;339588;28;95690;-95
2021/04/27 00:37:17;;;;;;;8.88;6.82;;;16.80;76.20;16.90;98409.00;;;;337803;28;83754;-94
2021/04/27 00:37:29;;;;;;;8.38;6.78;;;16.80;76.80;16.70;98414.00;;;;338532;28;93333;-95
2021/04/27 00:37:41;;;;;;;10.35;7.00;;;16.80;76.70;16.70;98413.00;;;;341627;28;82420;-94
2021/04/27 00:37:52;;;;;;;9.73;6.82;;;16.80;76.10;16.80;98410.00;;;;336702;28;98134;-94
2021/04/27 00:38:04;;;;;;;8.13;6.47;;;16.80;76.00;16.90;98412.00;;;;337913;28;82384;-95
2021/04/27 00:38:15;;;;;;;8.18;6.45;;;16.70;75.90;16.80;98409.00;;;;338423;28;93458;-94
2021/04/27 00:38:28;;;;;;;8.95;6.85;;;16.80;75.90;16.60;98412.00;;;;340378;28;83922;-95
2021/04/27 00:38:40;;;;;;;8.38;6.53;;;16.70;75.90;16.60;98409.00;;;;337145;28;95673;-95
2021/04/27 00:38:51;;;;;;;6.95;6.20;;;16.70;75.90;16.60;98412.00;;;;339137;28;84350;-95
2021/04/27 00:39:04;;;;;;;6.72;6.03;;;16.80;75.90;16.70;98409.00;;;;338391;28;93719;-95
2021/04/27 00:39:15;;;;;;;7.43;6.50;;;16.70;75.90;16.70;98413.00;;;;339114;28;83860;-94
2021/04/27 00:39:26;;;;;;;8.40;6.63;;;16.70;76.00;16.60;98412.00;;;;338304;28;97222;-95
2021/04/27 00:39:38;;;;;;;9.57;6.75;;;16.70;76.00;16.60;98417.00;;;;339044;28;83756;-95
2021/04/27 00:39:49;;;;;;;9.70;6.70;;;16.70;76.70;16.60;98408.00;;;;335682;28;96870;-94
2021/04/27 00:40:01;;;;;;;10.20;6.43;;;16.70;76.10;16.70;98424.00;;;;335115;29;83826;-94
2021/04/27 00:40:14;;;;;;;9.18;6.22;;;16.70;76.10;16.80;98413.00;;;;337010;28;96485;-94
2021/04/27 00:40:27;;;;;;;9.25;7.00;;;16.70;76.20;16.70;98410.00;;;;337773;28;82567;-95
2021/04/27 00:40:38;;;;;;;9.38;7.22;;;16.70;76.20;16.70;98418.00;;;;336829;28;95808;-93
2021/04/27 00:40:49;;;;;;;7.35;6.07;;;16.70;76.40;16.90;98412.00;;;;339143;28;83972;-95
2021/04/27 00:41:01;;;;;;;7.38;6.40;;;16.70;76.50;16.80;98423.00;;;;336799;28;96070;-94
2021/04/27 00:41:12;;;;;;;9.02;7.00;;;16.70;76.20;16.70;98413.00;;;;337494;28;84652;-93
2021/04/27 00:41:24;;;;;;;10.65;7.43;;;16.70;76.10;16.70;98407.00;;;;336943;28;93255;-95
2021/04/27 00:41:35;;;;;;;9.60;6.85;;;16.70;76.10;16.70;98405.00;;;;336941;28;83379;-94
2021/04/27 00:41:47;;;;;;;7.80;6.43;;;16.70;76.00;16.70;98413.00;;;;336992;28;97317;-96
2021/04/27 00:41:58;;;;;;;7.57;6.35;;;16.70;76.00;16.80;98405.00;;;;335226;29;82381;-96
2021/04/27 00:42:10;;;;;;;7.90;6.53;;;16.70;76.10;16.70;98414.00;;;;338444;28;95953;-94
2021/04/27 00:42:32;;;;;;;7.53;6.20;;;16.70;76.10;16.70;98421.00;;;;334982;29;84918;-95
2021/04/27 00:42:46;;;;;;;8.50;6.95;;;16.70;76.10;16.70;98413.00;;;;338278;28;96463;-94
2021/04/27 00:42:58;;;;;;;8.98;6.90;;;16.70;76.20;16.70;98408.00;;;;336441;28;83968;-96
2021/04/27 00:43:09;;;;;;;9.63;6.63;;;16.70;76.20;16.70;98410.00;;;;337065;28;97211;-96
2021/04/27 00:43:20;;;;;;;8.50;6.43;;;16.70;76.20;16.60;98412.00;;;;337621;28;83865;-94
2021/04/27 00:43:32;;;;;;;8.63;6.50;;;16.70;76.20;16.70;98412.00;;;;335778;28;96030;-95
2021/04/27 00:43:43;;;;;;;8.15;6.68;;;16.70;76.20;16.80;98406.00;;;;337790;28;83388;-94
2021/04/27 00:43:55;;;;;;;8.95;6.28;;;16.60;76.20;16.80;98406.00;;;;335772;28;96261;-95
2021/04/27 00:44:06;;;;;;;9.05;6.32;;;16.70;76.90;16.80;98410.00;;;;336791;28;84479;-95
2021/04/27 00:44:18;;;;;;;10.02;6.20;;;16.60;76.20;16.80;98415.00;;;;335347;28;95695;-94
2021/04/27 00:44:29;;;;;;;9.30;6.43;;;16.70;76.20;16.80;98408.00;;;;335086;29;83773;-94
2021/04/27 00:44:41;;;;;;;8.23;6.20;;;16.70;76.20;16.80;98410.00;;;;334309;29;96019;-95
2021/04/27 00:44:52;;;;;;;7.82;6.57;;;16.70;76.20;16.90;98413.00;;;;337816;28;83383;-95
2021/04/27 00:45:06;;;;;;;8.07;6.38;;;16.70;76.20;16.90;98410.00;;;;338287;28;95826;-93
2021/04/27 00:45:25;;;;;;;9.13;6.30;;;16.70;76.40;16.80;98412.00;;;;341773;28;82534;-93
2021/04/27 00:45:36;;;;;;;9.80;6.90;;;16.70;76.40;16.90;98409.00;;;;339661;28;97266;-93
2021/04/27 00:45:48;;;;;;;8.80;6.70;;;16.70;76.30;16.90;98408.00;;;;341729;28;83922;-95
2021/04/27 00:45:59;;;;;;;7.20;6.28;;;16.70;76.20;16.80;98415.00;;;;341154;28;96723;-94
2021/04/27 00:46:11;;;;;;;7.30;6.50;;;16.70;76.20;16.80;98408.00;;;;338896;28;84805;-94
2021/04/27 00:46:22;;;;;;;7.78;6.93;;;16.70;76.10;16.90;98405.00;;;;339694;28;94671;-94
2021/04/27 00:46:34;;;;;;;9.18;6.90;;;16.70;76.10;16.70;98416.00;;;;339088;28;83853;-94
2021/04/27 00:46:46;;;;;;;8.77;6.32;;;16.70;76.20;16.70;98405.00;;;;342440;28;96564;-95
2021/04/27 00:46:57;;;;;;;9.85;6.70;;;16.70;76.20;16.50;98411.00;;;;337802;28;84206;-94
2021/04/27 00:47:09;;;;;;;9.23;6.30;;;16.60;76.20;16.50;98404.00;;;;337972;28;95743;-94
2021/04/27 00:47:20;;;;;;;9.90;6.40;;;16.60;76.30;16.50;98407.00;;;;337094;28;84835;-95
2021/04/27 00:47:32;;;;;;;9.27;6.32;;;16.60;76.30;16.30;98417.00;;;;339575;28;96013;-95
2021/04/27 00:47:44;;;;;;;10.25;7.18;;;16.60;75.90;16.20;98407.00;;;;336315;28;84681;-96
2021/04/27 00:47:56;;;;;;;8.48;7.10;;;16.50;75.80;16.20;98418.00;;;;337044;28;96881;-95
2021/04/27 00:48:08;;;;;;;7.63;6.78;;;16.50;75.80;16.10;98411.00;;;;338107;28;83979;-93
2021/04/27 00:48:19;;;;;;;6.72;6.05;;;16.40;75.90;16.10;98413.00;;;;339518;28;96020;-95
2021/04/27 00:48:31;;;;;;;6.72;6.00;;;16.40;76.00;16.20;98408.00;;;;337641;28;84907;-96
2021/04/27 00:48:42;;;;;;;6.97;6.03;;;16.40;76.10;16.20;98411.00;;;;337028;28;96985;-96
2021/04/27 00:48:54;;;;;;;7.28;6.15;;;16.40;76.20;16.20;98409.00;;;;339159;28;83537;-95
2021/04/27 00:49:07;;;;;;;7.55;6.38;;;16.40;76.40;16.30;98413.00;;;;338304;28;96081;-95
2021/04/27 00:49:18;;;;;;;8.70;6.75;;;16.30;76.30;16.30;98406.00;;;;338864;28;82648;-96
2021/04/27 00:49:30;;;;;;;8.50;6.50;;;16.30;76.30;16.30;98410.00;;;;337037;28;95868;-95
2021/04/27 00:49:41;;;;;;;8.10;6.25;;;16.30;76.30;16.20;98408.00;;;;337776;28;83358;-94
2021/04/27 00:49:53;;;;;;;7.88;6.28;;;16.30;76.40;16.20;98412.00;;;;337149;28;95226;-96
2021/04/27 00:50:10;;;;;;;9.65;6.60;;;16.30;76.60;16.30;98409.00;;;;338890;28;84652;-94
2021/04/27 00:50:43;;;;;;;9.10;6.03;;;16.30;76.80;16.40;98410.00;;;;338224;28;96189;-96
2021/04/27 00:50:54;;;;;;;7.55;6.85;;;16.30;76.60;16.50;98415.00;;;;338829;28;83922;-96
2021/04/27 00:51:06;;;;;;;8.30;7.15;;;16.30;76.70;16.40;98417.00;;;;336890;28;95751;-94
2021/04/27 00:51:18;;;;;;;8.95;7.07;;;16.30;76.80;16.40;98402.00;;;;336507;28;83781;-94
2021/04/27 00:51:29;;;;;;;8.98;6.40;;;16.30;76.70;16.30;98415.00;;;;337078;28;95765;-95
2021/04/27 00:51:41;;;;;;;8.13;6.05;;;16.30;76.70;16.20;98410.00;;;;341491;28;83481;-94
2021/04/27 00:51:52;;;;;;;8.77;6.05;;;16.30;76.70;16.10;98411.00;;;;338285;28;96193;-93
2021/04/27 00:52:04;;;;;;;9.55;6.20;;;16.30;76.80;16.20;98406.00;;;;337808;28;83590;-95
2021/04/27 00:52:15;;;;;;;9.35;6.65;;;16.30;76.90;16.40;98405.00;;;;337008;28;96795;-94
2021/04/27 00:52:26;;;;;;;8.32;6.45;;;16.30;76.80;16.40;98409.00;;;;337389;28;83791;-94
2021/04/27 00:52:38;;;;;;;7.40;6.15;;;16.30;76.70;16.30;98414.00;;;;337130;28;96578;-94
2021/04/27 00:52:49;;;;;;;7.63;6.20;;;16.30;76.60;16.40;98400.00;;;;340520;28;82382;-95
2021/04/27 00:53:01;;;;;;;7.78;6.03;;;16.30;76.50;16.40;98412.00;;;;337011;28;96235;-95
2021/04/27 00:53:13;;;;;;;7.55;6.00;;;16.30;76.60;16.30;98407.00;;;;339501;28;83600;-94
2021/04/27 00:53:25;;;;;;;6.57;5.90;;;16.30;76.50;16.40;98413.00;;;;335715;28;96423;-96
2021/04/27 00:53:36;;;;;;;6.47;5.88;;;16.40;76.60;16.40;98406.00;;;;340256;28;82816;-95